메인 페이지
METAR-TAF:

METAR-TAF

공항 :

에누구, 나이지리아

위도: 06-28N, 경도: 007-33E, 고도: 137m

METAR: 누락

시각: 10:24 (09:24 UTC)

예보

예보는 28 시간 24분 전, 05:00시(UTC)에 발표되었습니다.
예보 대상 시간: 01일 06시부터 02일 12시까지 (UTC)
7kt
고도 900ft 상공 구름 보통
고도 2000ft 상공 구름 조금, 적란운.
전환 중
01일 08시부터 01일 10시까지 (UTC)
서남서11kt
고도 1100ft 상공 구름 많음
고도 2000ft 상공 구름 조금, 적란운.
일시적
01일 14시부터 01일 18시까지 (UTC)
뇌우
확률 30%
01일 14시부터 01일 17시까지 (UTC)
전환 중
01일 18시부터 01일 20시까지 (UTC)
kt
고도 900ft 상공 구름 보통

TAF: DNEN 010500Z 0106/0212 09007KT 6000-TSRA SCT009 FEW020CB BECMG 0108/0110 25011KT NSW BKN011 FEW020CB TEMPO 0114/0118 TS PROB30 0114/0117 5000-TSRA BECMG 0118/0120 00000KT SCT009

4,000개 이상의 공항 관측 자료 및 예보 (METAR 및 TAF 보고).

지도상에서 검색 가능한 기상관측소가 노란 점과 빨간 점으로 표시되어 있습니다.

기상관측소 명을 보려면 표시 위로 마우스를 이동하세요.

날씨 관측과 예보를 보려면 클릭하세요.

지도 변경 : 확대하려면 엑스 표시가 있는 녹색 버튼, 축소하려면 빼기 표시가 있는 녹색 버튼, 다음 페이지의 지도를 보려면 녹색 화살표를 클릭하세요.


METAR-TAF: